»·PEaware :: N8735K KCRQ-KCMA

N8735K :: KCRQ-KCMA

FLIGHT INFORMATION

Flight Status: Arrived
Operator: Privately registered:
United States
More flights under this callsign
Pilot: Jeff K. (12978)
Aircraft: BEECH AIRCRAFT BARON
(BE58)
More flights by this aircraft type
Origin: KCRQ McClellan-Palomar
United States
Destination: KCMA Camarillo
United States
More flights between these airports :: More routes between these airports
Route: +OCN V23 SLI SLI272 SMO125R SMO VNY
File this flight plan on PilotEdge
Remarks: +CW / SANP31
Altitude:
(Current/Filed)
6,000ft
Speed:
(Current/Filed)
150kts
Departed: 21-Feb-20 10:08 AM
Arrived: 21-Feb-20 11:14 AM
Distance/Time
Traveled:
111nm/1:06
Distance/Time
To Go:
Arrived

Flight Plot

Page will automatically refresh every two minutes.

Flight plan parsing failed; only flown route is shown


Map Options




Map Legend


Flown Route
Filed Route
Departure Airport
Arrival Airport
Navaid (VOR, NDB)
Fix

Horizontal Profiles

Position Reports

Time Latitude Longitude Heading Altitude Ground
Speed
21-Feb-20 09:42 33.126824 -117.280544 12 335ft 0kts
21-Feb-20 09:43 33.126824 -117.280544 12 335ft 0kts
21-Feb-20 09:44 33.126824 -117.280544 12 335ft 0kts
21-Feb-20 09:45 33.126824 -117.280544 12 335ft 0kts
21-Feb-20 09:46 33.126824 -117.280544 12 335ft 0kts
21-Feb-20 09:47 33.126824 -117.280544 12 335ft 0kts
21-Feb-20 09:48 33.126824 -117.280544 12 335ft 0kts
21-Feb-20 09:49 33.126824 -117.280544 12 335ft 0kts
21-Feb-20 09:50 33.126824 -117.280544 12 335ft 0kts
21-Feb-20 09:51 33.126824 -117.280544 12 335ft 0kts
21-Feb-20 09:53 33.126824 -117.280544 12 335ft 0kts
21-Feb-20 09:54 33.126824 -117.280544 12 335ft 0kts
21-Feb-20 09:55 33.126824 -117.280544 12 335ft 0kts
21-Feb-20 09:56 33.126824 -117.280544 12 335ft 0kts
21-Feb-20 09:57 33.126824 -117.280544 12 335ft 0kts
21-Feb-20 09:58 33.126824 -117.280544 12 335ft 0kts
21-Feb-20 09:59 33.126824 -117.280544 12 335ft 0kts
21-Feb-20 10:00 33.126824 -117.280544 12 335ft 0kts
21-Feb-20 10:01 33.126824 -117.280544 12 335ft 0kts
21-Feb-20 10:02 33.126824 -117.280544 12 335ft 0kts
21-Feb-20 10:03 33.127510 -117.279578 75 335ft 9kts
21-Feb-20 10:04 33.128200 -117.275299 79 335ft 15kts
21-Feb-20 10:05 33.128691 -117.272327 12 335ft 0kts
21-Feb-20 10:06 33.128691 -117.272327 12 335ft 0kts
21-Feb-20 10:07 33.128691 -117.272327 12 335ft 0kts
21-Feb-20 10:08 33.128889 -117.276264 258 336ft 83kts
21-Feb-20 10:09 33.124210 -117.316942 263 1512ft 136kts
21-Feb-20 10:10 33.119322 -117.362959 263 2615ft 141kts
21-Feb-20 10:11 33.122149 -117.408020 316 3672ft 139kts
21-Feb-20 10:12 33.159542 -117.416566 2 4672ft 138kts
21-Feb-20 10:12 33.190349 -117.417200 357 5614ft 132kts
21-Feb-20 10:14 33.236412 -117.418004 352 5954ft 157kts
21-Feb-20 10:15 33.269001 -117.448641 306 6019ft 157kts
21-Feb-20 10:15 33.293415 -117.482528 320 5928ft 162kts
21-Feb-20 10:17 33.332483 -117.522818 315 5975ft 161kts
21-Feb-20 10:18 33.364393 -117.560025 316 5998ft 160kts
21-Feb-20 10:18 33.391001 -117.590920 316 6000ft 160kts
21-Feb-20 10:20 33.428152 -117.634057 316 5999ft 157kts
21-Feb-20 10:20 33.453324 -117.663529 315 5999ft 156kts
21-Feb-20 10:21 33.484178 -117.700014 314 5999ft 156kts
21-Feb-20 10:23 33.520135 -117.742832 315 6000ft 156kts
21-Feb-20 10:23 33.545813 -117.773407 315 6000ft 156kts
21-Feb-20 10:24 33.577314 -117.810897 315 5987ft 161kts
21-Feb-20 10:25 33.609113 -117.848739 315 6002ft 162kts
21-Feb-20 10:26 33.641223 -117.886946 315 6001ft 162kts
21-Feb-20 10:27 33.673258 -117.925058 315 6000ft 162kts
21-Feb-20 10:28 33.705255 -117.963121 315 6000ft 162kts
21-Feb-20 10:29 33.737419 -118.001379 315 5999ft 162kts
21-Feb-20 10:30 33.769473 -118.039501 315 6000ft 162kts
21-Feb-20 10:31 33.793578 -118.083473 283 6039ft 159kts
21-Feb-20 10:32 33.804965 -118.136025 285 5977ft 163kts
21-Feb-20 10:33 33.817480 -118.188093 286 5996ft 162kts
21-Feb-20 10:34 33.830436 -118.240145 286 5999ft 162kts
21-Feb-20 10:35 33.843241 -118.292240 286 5999ft 162kts
21-Feb-20 10:36 33.874112 -118.329917 327 5970ft 163kts
21-Feb-20 10:37 33.912828 -118.357916 322 5978ft 162kts
21-Feb-20 10:38 33.946597 -118.393583 318 6000ft 162kts
21-Feb-20 10:39 33.981683 -118.427765 321 6000ft 162kts
21-Feb-20 10:40 34.017640 -118.458737 352 6007ft 160kts
21-Feb-20 10:41 34.062261 -118.465412 352 6006ft 161kts
21-Feb-20 10:42 34.106419 -118.472283 354 6038ft 160kts
21-Feb-20 10:43 34.135045 -118.508158 284 5993ft 164kts
21-Feb-20 10:44 34.144681 -118.561577 282 6009ft 162kts
21-Feb-20 10:45 34.154510 -118.615001 282 5967ft 163kts
21-Feb-20 10:46 34.164439 -118.668737 281 5834ft 167kts
21-Feb-20 10:47 34.173583 -118.722050 282 5904ft 161kts
21-Feb-20 10:48 34.183391 -118.775748 281 5910ft 161kts
21-Feb-20 10:49 34.191946 -118.829049 282 5932ft 161kts
21-Feb-20 10:50 34.201689 -118.882192 282 5930ft 163kts
21-Feb-20 10:51 34.211081 -118.935899 281 5928ft 162kts
21-Feb-20 10:52 34.220566 -118.989318 282 5917ft 163kts
21-Feb-20 10:53 34.229428 -119.042503 275 5954ft 163kts
21-Feb-20 10:54 34.231187 -119.090988 270 5034ft 121kts
21-Feb-20 10:55 34.232904 -119.139643 272 4364ft 159kts
21-Feb-20 10:56 34.232831 -119.191601 262 4042ft 145kts
21-Feb-20 10:57 34.226774 -119.238156 260 4027ft 141kts
21-Feb-20 10:58 34.220518 -119.286518 260 4031ft 150kts
21-Feb-20 10:59 34.213776 -119.336407 261 3997ft 152kts
21-Feb-20 11:00 34.207188 -119.387174 260 3957ft 152kts
21-Feb-20 11:01 34.210050 -119.434707 310 3451ft 138kts
21-Feb-20 11:02 34.224527 -119.472490 265 3477ft 130kts
21-Feb-20 11:03 34.204301 -119.505070 176 3094ft 147kts
21-Feb-20 11:04 34.193614 -119.468355 71 3027ft 142kts
21-Feb-20 11:05 34.200955 -119.421081 85 2950ft 143kts
21-Feb-20 11:06 34.203604 -119.372176 87 2641ft 150kts
21-Feb-20 11:07 34.203813 -119.322593 85 2208ft 140kts
21-Feb-20 11:08 34.203170 -119.277037 96 1218ft 118kts
21-Feb-20 11:09 34.201798 -119.238422 78 712ft 113kts
21-Feb-20 11:10 34.213637 -119.196304 84 1370ft 143kts
21-Feb-20 11:11 34.214085 -119.149274 90 907ft 123kts
21-Feb-20 11:12 34.213966 -119.110825 93 221ft 117kts
21-Feb-20 11:13 34.213251 -119.091009 161 70ft 8kts

Navigation Log

Ident Type
Flight plan parsing failed, navigation log unavailable